sensor_id;sensor_type;location;lat;lon;timestamp;P1;durP1;ratioP1;P2;durP2;ratioP2
8066;SDS011;4076;48.076;9.118;2023-06-10T00:02:04;13.70;;;7.50;;
8066;SDS011;4076;48.076;9.118;2023-06-10T00:04:30;14.80;;;8.37;;
8066;SDS011;4076;48.076;9.118;2023-06-10T00:06:56;15.97;;;8.93;;
8066;SDS011;4076;48.076;9.118;2023-06-10T00:09:22;17.27;;;9.10;;
8066;SDS011;4076;48.076;9.118;2023-06-10T00:11:47;14.03;;;7.43;;
8066;SDS011;4076;48.076;9.118;2023-06-10T00:14:13;14.90;;;9.57;;
8066;SDS011;4076;48.076;9.118;2023-06-10T00:16:39;15.50;;;9.53;;
8066;SDS011;4076;48.076;9.118;2023-06-10T00:19:04;14.80;;;8.60;;
8066;SDS011;4076;48.076;9.118;2023-06-10T00:21:31;20.67;;;8.17;;
8066;SDS011;4076;48.076;9.118;2023-06-10T00:24:03;15.07;;;7.77;;
8066;SDS011;4076;48.076;9.118;2023-06-10T00:26:30;14.77;;;7.77;;
8066;SDS011;4076;48.076;9.118;2023-06-10T00:28:56;15.27;;;9.77;;
8066;SDS011;4076;48.076;9.118;2023-06-10T00:31:21;14.53;;;8.80;;
8066;SDS011;4076;48.076;9.118;2023-06-10T00:33:47;13.60;;;8.10;;
8066;SDS011;4076;48.076;9.118;2023-06-10T00:36:12;15.77;;;8.60;;
8066;SDS011;4076;48.076;9.118;2023-06-10T00:38:38;17.93;;;8.77;;
8066;SDS011;4076;48.076;9.118;2023-06-10T00:41:05;15.07;;;8.60;;
8066;SDS011;4076;48.076;9.118;2023-06-10T00:43:31;13.77;;;9.30;;
8066;SDS011;4076;48.076;9.118;2023-06-10T00:45:57;14.77;;;8.43;;
8066;SDS011;4076;48.076;9.118;2023-06-10T00:48:22;15.07;;;9.10;;
8066;SDS011;4076;48.076;9.118;2023-06-10T00:50:48;15.87;;;9.80;;
8066;SDS011;4076;48.076;9.118;2023-06-10T00:53:14;14.90;;;9.17;;
8066;SDS011;4076;48.076;9.118;2023-06-10T00:55:40;16.50;;;8.07;;
8066;SDS011;4076;48.076;9.118;2023-06-10T00:58:06;16.73;;;8.63;;
8066;SDS011;4076;48.076;9.118;2023-06-10T01:00:33;17.20;;;10.27;;
8066;SDS011;4076;48.076;9.118;2023-06-10T01:02:58;14.60;;;8.70;;
8066;SDS011;4076;48.076;9.118;2023-06-10T01:05:24;16.67;;;9.00;;
8066;SDS011;4076;48.076;9.118;2023-06-10T01:10:36;16.77;;;10.80;;
8066;SDS011;4076;48.076;9.118;2023-06-10T01:13:06;14.47;;;7.40;;
8066;SDS011;4076;48.076;9.118;2023-06-10T01:15:36;14.20;;;7.83;;
8066;SDS011;4076;48.076;9.118;2023-06-10T01:18:03;15.40;;;9.53;;
8066;SDS011;4076;48.076;9.118;2023-06-10T01:20:33;16.37;;;10.10;;
8066;SDS011;4076;48.076;9.118;2023-06-10T01:23:02;16.77;;;8.43;;
8066;SDS011;4076;48.076;9.118;2023-06-10T01:25:28;12.63;;;7.30;;
8066;SDS011;4076;48.076;9.118;2023-06-10T01:30:48;15.37;;;8.80;;
8066;SDS011;4076;48.076;9.118;2023-06-10T01:33:25;14.37;;;8.10;;
8066;SDS011;4076;48.076;9.118;2023-06-10T01:35:53;15.53;;;8.80;;
8066;SDS011;4076;48.076;9.118;2023-06-10T01:38:21;15.73;;;7.90;;
8066;SDS011;4076;48.076;9.118;2023-06-10T01:40:48;15.20;;;8.93;;
8066;SDS011;4076;48.076;9.118;2023-06-10T01:43:16;17.00;;;9.20;;
8066;SDS011;4076;48.076;9.118;2023-06-10T01:45:41;17.07;;;10.37;;
8066;SDS011;4076;48.076;9.118;2023-06-10T01:48:07;15.83;;;10.37;;
8066;SDS011;4076;48.076;9.118;2023-06-10T01:50:32;17.43;;;9.73;;
8066;SDS011;4076;48.076;9.118;2023-06-10T01:52:59;16.33;;;9.00;;
8066;SDS011;4076;48.076;9.118;2023-06-10T01:55:24;14.37;;;8.30;;
8066;SDS011;4076;48.076;9.118;2023-06-10T01:57:50;15.57;;;8.27;;
8066;SDS011;4076;48.076;9.118;2023-06-10T02:00:16;16.23;;;8.73;;
8066;SDS011;4076;48.076;9.118;2023-06-10T02:02:42;14.70;;;8.40;;
8066;SDS011;4076;48.076;9.118;2023-06-10T02:05:07;15.90;;;9.27;;
8066;SDS011;4076;48.076;9.118;2023-06-10T02:07:33;16.03;;;9.97;;
8066;SDS011;4076;48.076;9.118;2023-06-10T02:09:59;16.27;;;8.33;;
8066;SDS011;4076;48.076;9.118;2023-06-10T02:12:24;17.50;;;10.30;;
8066;SDS011;4076;48.076;9.118;2023-06-10T02:14:50;15.47;;;8.80;;
8066;SDS011;4076;48.076;9.118;2023-06-10T02:17:16;16.43;;;10.80;;
8066;SDS011;4076;48.076;9.118;2023-06-10T02:19:41;16.40;;;9.13;;
8066;SDS011;4076;48.076;9.118;2023-06-10T02:22:07;15.80;;;9.50;;
8066;SDS011;4076;48.076;9.118;2023-06-10T02:24:35;15.93;;;10.30;;
8066;SDS011;4076;48.076;9.118;2023-06-10T02:27:02;17.00;;;9.00;;
8066;SDS011;4076;48.076;9.118;2023-06-10T02:29:31;15.23;;;9.37;;
8066;SDS011;4076;48.076;9.118;2023-06-10T02:31:58;15.87;;;8.53;;
8066;SDS011;4076;48.076;9.118;2023-06-10T02:34:24;17.07;;;10.63;;
8066;SDS011;4076;48.076;9.118;2023-06-10T02:36:49;15.47;;;8.37;;
8066;SDS011;4076;48.076;9.118;2023-06-10T02:39:16;14.20;;;9.00;;
8066;SDS011;4076;48.076;9.118;2023-06-10T02:41:41;17.73;;;9.40;;
8066;SDS011;4076;48.076;9.118;2023-06-10T02:44:07;15.77;;;8.20;;
8066;SDS011;4076;48.076;9.118;2023-06-10T02:46:32;15.67;;;8.90;;
8066;SDS011;4076;48.076;9.118;2023-06-10T02:48:58;16.13;;;8.53;;
8066;SDS011;4076;48.076;9.118;2023-06-10T02:51:23;15.30;;;8.43;;
8066;SDS011;4076;48.076;9.118;2023-06-10T02:53:49;16.93;;;10.57;;
8066;SDS011;4076;48.076;9.118;2023-06-10T02:56:16;16.70;;;9.20;;
8066;SDS011;4076;48.076;9.118;2023-06-10T02:58:42;15.77;;;8.97;;
8066;SDS011;4076;48.076;9.118;2023-06-10T03:01:07;15.23;;;8.57;;
8066;SDS011;4076;48.076;9.118;2023-06-10T03:03:35;15.37;;;9.40;;
8066;SDS011;4076;48.076;9.118;2023-06-10T03:06:01;16.27;;;9.63;;
8066;SDS011;4076;48.076;9.118;2023-06-10T03:08:27;16.70;;;8.93;;
8066;SDS011;4076;48.076;9.118;2023-06-10T03:10:53;17.63;;;9.30;;
8066;SDS011;4076;48.076;9.118;2023-06-10T03:13:19;16.63;;;10.10;;
8066;SDS011;4076;48.076;9.118;2023-06-10T03:15:44;16.33;;;9.00;;
8066;SDS011;4076;48.076;9.118;2023-06-10T03:18:11;16.00;;;10.90;;
8066;SDS011;4076;48.076;9.118;2023-06-10T03:20:36;15.90;;;9.23;;
8066;SDS011;4076;48.076;9.118;2023-06-10T03:23:03;14.83;;;9.37;;
8066;SDS011;4076;48.076;9.118;2023-06-10T03:25:31;18.83;;;9.93;;
8066;SDS011;4076;48.076;9.118;2023-06-10T03:27:57;16.47;;;9.57;;
8066;SDS011;4076;48.076;9.118;2023-06-10T03:30:22;17.07;;;10.50;;
8066;SDS011;4076;48.076;9.118;2023-06-10T03:32:48;15.77;;;9.20;;
8066;SDS011;4076;48.076;9.118;2023-06-10T03:35:14;15.87;;;8.60;;
8066;SDS011;4076;48.076;9.118;2023-06-10T03:37:40;17.07;;;12.73;;
8066;SDS011;4076;48.076;9.118;2023-06-10T03:40:05;14.23;;;8.33;;
8066;SDS011;4076;48.076;9.118;2023-06-10T03:42:33;15.80;;;8.70;;
8066;SDS011;4076;48.076;9.118;2023-06-10T03:44:59;15.47;;;8.40;;
8066;SDS011;4076;48.076;9.118;2023-06-10T03:47:25;16.13;;;9.63;;
8066;SDS011;4076;48.076;9.118;2023-06-10T03:49:50;27.80;;;9.83;;
8066;SDS011;4076;48.076;9.118;2023-06-10T03:52:16;14.60;;;8.80;;
8066;SDS011;4076;48.076;9.118;2023-06-10T03:54:42;15.73;;;9.50;;
8066;SDS011;4076;48.076;9.118;2023-06-10T03:57:08;15.83;;;8.67;;
8066;SDS011;4076;48.076;9.118;2023-06-10T03:59:33;17.30;;;9.20;;
8066;SDS011;4076;48.076;9.118;2023-06-10T04:01:59;17.03;;;9.93;;
8066;SDS011;4076;48.076;9.118;2023-06-10T04:04:25;14.63;;;8.20;;
8066;SDS011;4076;48.076;9.118;2023-06-10T04:06:51;15.40;;;9.63;;
8066;SDS011;4076;48.076;9.118;2023-06-10T04:09:16;17.60;;;9.40;;
8066;SDS011;4076;48.076;9.118;2023-06-10T04:11:42;17.70;;;8.70;;
8066;SDS011;4076;48.076;9.118;2023-06-10T04:14:07;15.97;;;8.83;;
8066;SDS011;4076;48.076;9.118;2023-06-10T04:16:33;15.77;;;7.90;;
8066;SDS011;4076;48.076;9.118;2023-06-10T04:19:00;19.87;;;10.40;;
8066;SDS011;4076;48.076;9.118;2023-06-10T04:21:26;16.20;;;9.10;;
8066;SDS011;4076;48.076;9.118;2023-06-10T04:23:51;16.10;;;10.57;;
8066;SDS011;4076;48.076;9.118;2023-06-10T04:26:17;17.20;;;10.13;;
8066;SDS011;4076;48.076;9.118;2023-06-10T04:28:43;14.13;;;8.47;;
8066;SDS011;4076;48.076;9.118;2023-06-10T04:31:08;16.30;;;9.27;;
8066;SDS011;4076;48.076;9.118;2023-06-10T04:33:35;14.43;;;8.60;;
8066;SDS011;4076;48.076;9.118;2023-06-10T04:36:00;18.20;;;10.33;;
8066;SDS011;4076;48.076;9.118;2023-06-10T04:38:26;16.60;;;10.00;;
8066;SDS011;4076;48.076;9.118;2023-06-10T04:40:52;17.10;;;10.87;;
8066;SDS011;4076;48.076;9.118;2023-06-10T04:43:17;17.20;;;9.80;;
8066;SDS011;4076;48.076;9.118;2023-06-10T04:45:43;16.67;;;10.50;;
8066;SDS011;4076;48.076;9.118;2023-06-10T04:48:09;17.40;;;10.03;;
8066;SDS011;4076;48.076;9.118;2023-06-10T04:50:36;19.33;;;10.50;;
8066;SDS011;4076;48.076;9.118;2023-06-10T04:53:02;18.33;;;10.17;;
8066;SDS011;4076;48.076;9.118;2023-06-10T04:55:28;17.27;;;11.13;;
8066;SDS011;4076;48.076;9.118;2023-06-10T04:57:53;17.97;;;10.47;;
8066;SDS011;4076;48.076;9.118;2023-06-10T05:00:19;16.47;;;8.97;;
8066;SDS011;4076;48.076;9.118;2023-06-10T05:02:45;17.20;;;10.03;;
8066;SDS011;4076;48.076;9.118;2023-06-10T05:05:14;17.47;;;9.83;;
8066;SDS011;4076;48.076;9.118;2023-06-10T05:07:42;17.87;;;10.60;;
8066;SDS011;4076;48.076;9.118;2023-06-10T05:10:08;18.07;;;10.63;;
8066;SDS011;4076;48.076;9.118;2023-06-10T05:12:34;16.50;;;8.43;;
8066;SDS011;4076;48.076;9.118;2023-06-10T05:15:00;17.53;;;10.67;;
8066;SDS011;4076;48.076;9.118;2023-06-10T05:17:26;16.17;;;9.83;;
8066;SDS011;4076;48.076;9.118;2023-06-10T05:19:52;17.77;;;10.80;;
8066;SDS011;4076;48.076;9.118;2023-06-10T05:22:18;18.17;;;10.10;;
8066;SDS011;4076;48.076;9.118;2023-06-10T05:24:43;17.40;;;9.77;;
8066;SDS011;4076;48.076;9.118;2023-06-10T05:27:09;16.17;;;10.23;;
8066;SDS011;4076;48.076;9.118;2023-06-10T05:29:35;16.73;;;10.43;;
8066;SDS011;4076;48.076;9.118;2023-06-10T05:32:01;16.83;;;10.73;;
8066;SDS011;4076;48.076;9.118;2023-06-10T05:34:31;18.47;;;11.20;;
8066;SDS011;4076;48.076;9.118;2023-06-10T05:36:56;18.80;;;11.70;;
8066;SDS011;4076;48.076;9.118;2023-06-10T05:39:22;16.00;;;9.97;;
8066;SDS011;4076;48.076;9.118;2023-06-10T05:41:48;15.60;;;9.77;;
8066;SDS011;4076;48.076;9.118;2023-06-10T05:44:13;18.10;;;11.57;;
8066;SDS011;4076;48.076;9.118;2023-06-10T05:46:39;18.17;;;10.90;;
8066;SDS011;4076;48.076;9.118;2023-06-10T05:49:04;19.30;;;10.17;;
8066;SDS011;4076;48.076;9.118;2023-06-10T05:51:30;17.50;;;10.37;;
8066;SDS011;4076;48.076;9.118;2023-06-10T05:53:55;16.87;;;9.80;;
8066;SDS011;4076;48.076;9.118;2023-06-10T05:56:21;17.97;;;11.20;;
8066;SDS011;4076;48.076;9.118;2023-06-10T05:58:47;17.30;;;10.93;;
8066;SDS011;4076;48.076;9.118;2023-06-10T06:01:13;18.73;;;10.73;;
8066;SDS011;4076;48.076;9.118;2023-06-10T06:03:39;16.23;;;9.70;;
8066;SDS011;4076;48.076;9.118;2023-06-10T06:06:05;18.83;;;10.90;;
8066;SDS011;4076;48.076;9.118;2023-06-10T06:08:30;16.37;;;9.07;;
8066;SDS011;4076;48.076;9.118;2023-06-10T06:10:56;18.00;;;10.43;;
8066;SDS011;4076;48.076;9.118;2023-06-10T06:13:22;18.97;;;11.23;;
8066;SDS011;4076;48.076;9.118;2023-06-10T06:15:48;16.47;;;10.10;;
8066;SDS011;4076;48.076;9.118;2023-06-10T06:18:14;20.03;;;10.87;;
8066;SDS011;4076;48.076;9.118;2023-06-10T06:20:40;18.13;;;9.93;;
8066;SDS011;4076;48.076;9.118;2023-06-10T06:23:05;19.60;;;12.00;;
8066;SDS011;4076;48.076;9.118;2023-06-10T06:25:33;19.40;;;9.53;;
8066;SDS011;4076;48.076;9.118;2023-06-10T06:28:00;16.30;;;8.80;;
8066;SDS011;4076;48.076;9.118;2023-06-10T06:30:26;16.80;;;9.60;;
8066;SDS011;4076;48.076;9.118;2023-06-10T06:32:51;21.00;;;11.00;;
8066;SDS011;4076;48.076;9.118;2023-06-10T06:35:17;18.77;;;9.00;;
8066;SDS011;4076;48.076;9.118;2023-06-10T06:37:42;16.33;;;8.73;;
8066;SDS011;4076;48.076;9.118;2023-06-10T06:40:08;16.47;;;9.00;;
8066;SDS011;4076;48.076;9.118;2023-06-10T06:42:34;17.87;;;9.83;;
8066;SDS011;4076;48.076;9.118;2023-06-10T06:44:59;19.63;;;9.80;;
8066;SDS011;4076;48.076;9.118;2023-06-10T06:47:25;19.17;;;10.10;;
8066;SDS011;4076;48.076;9.118;2023-06-10T06:49:51;17.50;;;9.93;;
8066;SDS011;4076;48.076;9.118;2023-06-10T06:52:17;17.00;;;9.53;;
8066;SDS011;4076;48.076;9.118;2023-06-10T06:54:42;17.20;;;10.10;;
8066;SDS011;4076;48.076;9.118;2023-06-10T06:57:08;18.43;;;10.23;;
8066;SDS011;4076;48.076;9.118;2023-06-10T06:59:33;18.83;;;10.50;;
8066;SDS011;4076;48.076;9.118;2023-06-10T07:01:59;19.10;;;10.70;;
8066;SDS011;4076;48.076;9.118;2023-06-10T07:04:25;18.00;;;10.90;;
8066;SDS011;4076;48.076;9.118;2023-06-10T07:06:50;19.47;;;11.50;;
8066;SDS011;4076;48.076;9.118;2023-06-10T07:09:16;19.20;;;10.33;;
8066;SDS011;4076;48.076;9.118;2023-06-10T07:11:42;17.07;;;10.00;;
8066;SDS011;4076;48.076;9.118;2023-06-10T07:14:07;17.23;;;9.60;;
8066;SDS011;4076;48.076;9.118;2023-06-10T07:16:33;17.93;;;9.80;;
8066;SDS011;4076;48.076;9.118;2023-06-10T07:18:59;22.10;;;12.93;;
8066;SDS011;4076;48.076;9.118;2023-06-10T07:21:24;19.67;;;11.00;;
8066;SDS011;4076;48.076;9.118;2023-06-10T07:23:50;18.30;;;10.43;;
8066;SDS011;4076;48.076;9.118;2023-06-10T07:26:21;18.53;;;11.37;;
8066;SDS011;4076;48.076;9.118;2023-06-10T07:28:47;18.53;;;10.50;;
8066;SDS011;4076;48.076;9.118;2023-06-10T07:31:12;21.70;;;10.47;;
8066;SDS011;4076;48.076;9.118;2023-06-10T07:33:38;18.20;;;10.20;;
8066;SDS011;4076;48.076;9.118;2023-06-10T07:36:04;15.57;;;8.80;;
8066;SDS011;4076;48.076;9.118;2023-06-10T07:38:30;18.27;;;9.73;;
8066;SDS011;4076;48.076;9.118;2023-06-10T07:40:56;17.27;;;9.20;;
8066;SDS011;4076;48.076;9.118;2023-06-10T07:43:22;17.30;;;9.80;;
8066;SDS011;4076;48.076;9.118;2023-06-10T07:45:48;16.67;;;8.47;;
8066;SDS011;4076;48.076;9.118;2023-06-10T07:48:14;14.57;;;7.23;;
8066;SDS011;4076;48.076;9.118;2023-06-10T07:50:39;14.90;;;8.20;;
8066;SDS011;4076;48.076;9.118;2023-06-10T07:53:05;14.60;;;7.10;;
8066;SDS011;4076;48.076;9.118;2023-06-10T07:55:31;16.80;;;7.40;;
8066;SDS011;4076;48.076;9.118;2023-06-10T07:57:56;14.70;;;7.00;;
8066;SDS011;4076;48.076;9.118;2023-06-10T08:00:22;13.93;;;6.40;;
8066;SDS011;4076;48.076;9.118;2023-06-10T08:02:48;14.27;;;7.93;;
8066;SDS011;4076;48.076;9.118;2023-06-10T08:05:13;12.90;;;6.00;;
8066;SDS011;4076;48.076;9.118;2023-06-10T08:07:39;14.30;;;7.50;;
8066;SDS011;4076;48.076;9.118;2023-06-10T08:10:05;12.67;;;7.00;;
8066;SDS011;4076;48.076;9.118;2023-06-10T08:12:32;11.67;;;7.20;;
8066;SDS011;4076;48.076;9.118;2023-06-10T08:14:58;12.30;;;8.50;;
8066;SDS011;4076;48.076;9.118;2023-06-10T08:17:24;14.77;;;7.67;;
8066;SDS011;4076;48.076;9.118;2023-06-10T08:19:49;18.80;;;8.47;;
8066;SDS011;4076;48.076;9.118;2023-06-10T08:22:15;13.67;;;8.10;;
8066;SDS011;4076;48.076;9.118;2023-06-10T08:24:41;12.90;;;9.80;;
8066;SDS011;4076;48.076;9.118;2023-06-10T08:27:07;15.10;;;10.60;;
8066;SDS011;4076;48.076;9.118;2023-06-10T08:29:32;13.97;;;10.60;;
8066;SDS011;4076;48.076;9.118;2023-06-10T08:31:58;14.47;;;11.23;;
8066;SDS011;4076;48.076;9.118;2023-06-10T08:34:24;14.70;;;12.50;;
8066;SDS011;4076;48.076;9.118;2023-06-10T08:36:49;16.43;;;12.87;;
8066;SDS011;4076;48.076;9.118;2023-06-10T08:39:18;17.37;;;15.67;;
8066;SDS011;4076;48.076;9.118;2023-06-10T08:41:47;23.53;;;21.53;;
8066;SDS011;4076;48.076;9.118;2023-06-10T08:44:33;29.77;;;27.67;;
8066;SDS011;4076;48.076;9.118;2023-06-10T08:47:04;25.77;;;23.77;;
8066;SDS011;4076;48.076;9.118;2023-06-10T08:49:38;26.27;;;24.33;;
8066;SDS011;4076;48.076;9.118;2023-06-10T08:52:08;26.97;;;24.87;;
8066;SDS011;4076;48.076;9.118;2023-06-10T08:54:40;23.80;;;22.00;;
8066;SDS011;4076;48.076;9.118;2023-06-10T08:57:24;22.80;;;20.97;;
8066;SDS011;4076;48.076;9.118;2023-06-10T08:59:52;21.07;;;19.30;;
8066;SDS011;4076;48.076;9.118;2023-06-10T09:02:19;24.47;;;22.47;;
8066;SDS011;4076;48.076;9.118;2023-06-10T09:04:46;24.87;;;22.90;;
8066;SDS011;4076;48.076;9.118;2023-06-10T09:07:13;25.77;;;23.57;;
8066;SDS011;4076;48.076;9.118;2023-06-10T09:09:40;23.20;;;21.10;;
8066;SDS011;4076;48.076;9.118;2023-06-10T09:12:08;23.57;;;21.80;;
8066;SDS011;4076;48.076;9.118;2023-06-10T09:14:33;25.73;;;24.03;;
8066;SDS011;4076;48.076;9.118;2023-06-10T09:16:59;25.57;;;23.77;;
8066;SDS011;4076;48.076;9.118;2023-06-10T09:19:25;29.33;;;27.47;;
8066;SDS011;4076;48.076;9.118;2023-06-10T09:21:53;32.27;;;30.17;;
8066;SDS011;4076;48.076;9.118;2023-06-10T09:24:18;29.13;;;27.23;;
8066;SDS011;4076;48.076;9.118;2023-06-10T09:26:46;32.63;;;30.63;;
8066;SDS011;4076;48.076;9.118;2023-06-10T09:29:12;32.00;;;29.90;;
8066;SDS011;4076;48.076;9.118;2023-06-10T09:31:37;31.17;;;29.10;;
8066;SDS011;4076;48.076;9.118;2023-06-10T09:36:37;34.23;;;32.13;;
8066;SDS011;4076;48.076;9.118;2023-06-10T09:39:03;37.20;;;35.00;;
8066;SDS011;4076;48.076;9.118;2023-06-10T09:41:33;30.53;;;28.73;;
8066;SDS011;4076;48.076;9.118;2023-06-10T09:44:00;31.30;;;29.40;;
8066;SDS011;4076;48.076;9.118;2023-06-10T09:46:30;31.80;;;29.90;;
8066;SDS011;4076;48.076;9.118;2023-06-10T09:48:58;34.20;;;32.00;;
8066;SDS011;4076;48.076;9.118;2023-06-10T09:51:23;40.23;;;37.43;;
8066;SDS011;4076;48.076;9.118;2023-06-10T09:53:53;60.70;;;57.53;;
8066;SDS011;4076;48.076;9.118;2023-06-10T09:56:19;45.50;;;42.83;;
8066;SDS011;4076;48.076;9.118;2023-06-10T09:58:45;33.77;;;31.17;;
8066;SDS011;4076;48.076;9.118;2023-06-10T10:01:12;42.90;;;40.20;;
8066;SDS011;4076;48.076;9.118;2023-06-10T10:03:43;36.77;;;34.17;;
8066;SDS011;4076;48.076;9.118;2023-06-10T10:06:12;32.00;;;29.47;;
8066;SDS011;4076;48.076;9.118;2023-06-10T10:08:39;23.67;;;21.30;;
8066;SDS011;4076;48.076;9.118;2023-06-10T10:11:05;20.20;;;16.10;;
8066;SDS011;4076;48.076;9.118;2023-06-10T10:13:32;17.60;;;15.67;;
8066;SDS011;4076;48.076;9.118;2023-06-10T10:15:59;14.63;;;11.20;;
8066;SDS011;4076;48.076;9.118;2023-06-10T10:18:28;14.40;;;10.37;;
8066;SDS011;4076;48.076;9.118;2023-06-10T10:20:56;13.57;;;9.57;;
8066;SDS011;4076;48.076;9.118;2023-06-10T10:23:34;13.37;;;8.30;;
8066;SDS011;4076;48.076;9.118;2023-06-10T10:26:07;14.33;;;8.00;;
8066;SDS011;4076;48.076;9.118;2023-06-10T10:28:37;13.77;;;8.10;;
8066;SDS011;4076;48.076;9.118;2023-06-10T10:31:09;13.07;;;6.80;;
8066;SDS011;4076;48.076;9.118;2023-06-10T10:33:42;12.80;;;6.87;;
8066;SDS011;4076;48.076;9.118;2023-06-10T10:36:16;13.77;;;8.47;;
8066;SDS011;4076;48.076;9.118;2023-06-10T10:38:43;14.10;;;7.53;;
8066;SDS011;4076;48.076;9.118;2023-06-10T10:41:12;13.60;;;6.53;;
8066;SDS011;4076;48.076;9.118;2023-06-10T10:43:39;13.27;;;7.77;;
8066;SDS011;4076;48.076;9.118;2023-06-10T10:46:08;12.50;;;6.27;;
8066;SDS011;4076;48.076;9.118;2023-06-10T10:48:38;12.77;;;6.23;;
8066;SDS011;4076;48.076;9.118;2023-06-10T10:51:06;11.77;;;5.80;;
8066;SDS011;4076;48.076;9.118;2023-06-10T10:53:32;11.90;;;6.87;;
8066;SDS011;4076;48.076;9.118;2023-06-10T10:56:08;11.97;;;6.33;;
8066;SDS011;4076;48.076;9.118;2023-06-10T10:58:38;13.50;;;6.63;;
8066;SDS011;4076;48.076;9.118;2023-06-10T11:01:13;12.00;;;6.07;;
8066;SDS011;4076;48.076;9.118;2023-06-10T11:03:43;12.53;;;4.33;;
8066;SDS011;4076;48.076;9.118;2023-06-10T11:06:13;11.20;;;4.30;;
8066;SDS011;4076;48.076;9.118;2023-06-10T11:11:24;10.80;;;5.43;;
8066;SDS011;4076;48.076;9.118;2023-06-10T11:16:28;12.73;;;5.80;;
8066;SDS011;4076;48.076;9.118;2023-06-10T11:18:54;11.20;;;4.37;;
8066;SDS011;4076;48.076;9.118;2023-06-10T11:21:20;11.27;;;5.57;;
8066;SDS011;4076;48.076;9.118;2023-06-10T11:23:48;11.23;;;5.43;;
8066;SDS011;4076;48.076;9.118;2023-06-10T11:29:05;13.80;;;6.20;;
8066;SDS011;4076;48.076;9.118;2023-06-10T11:31:35;14.50;;;5.23;;
8066;SDS011;4076;48.076;9.118;2023-06-10T11:34:04;11.67;;;4.70;;
8066;SDS011;4076;48.076;9.118;2023-06-10T11:36:32;11.43;;;5.20;;
8066;SDS011;4076;48.076;9.118;2023-06-10T11:39:00;11.30;;;5.57;;
8066;SDS011;4076;48.076;9.118;2023-06-10T11:41:28;12.97;;;5.60;;
8066;SDS011;4076;48.076;9.118;2023-06-10T11:43:56;11.40;;;5.53;;
8066;SDS011;4076;48.076;9.118;2023-06-10T11:46:22;12.60;;;5.80;;
8066;SDS011;4076;48.076;9.118;2023-06-10T11:48:51;10.40;;;3.97;;
8066;SDS011;4076;48.076;9.118;2023-06-10T11:51:17;11.73;;;4.90;;
8066;SDS011;4076;48.076;9.118;2023-06-10T11:53:44;11.97;;;5.50;;
8066;SDS011;4076;48.076;9.118;2023-06-10T11:56:11;11.80;;;4.60;;
8066;SDS011;4076;48.076;9.118;2023-06-10T11:58:37;10.03;;;4.27;;
8066;SDS011;4076;48.076;9.118;2023-06-10T12:01:08;10.73;;;4.40;;
8066;SDS011;4076;48.076;9.118;2023-06-10T12:03:37;11.40;;;4.70;;
8066;SDS011;4076;48.076;9.118;2023-06-10T12:06:04;11.00;;;5.23;;
8066;SDS011;4076;48.076;9.118;2023-06-10T12:08:31;12.20;;;5.93;;
8066;SDS011;4076;48.076;9.118;2023-06-10T12:10:58;11.37;;;4.33;;
8066;SDS011;4076;48.076;9.118;2023-06-10T12:13:27;12.40;;;5.60;;
8066;SDS011;4076;48.076;9.118;2023-06-10T12:15:53;14.07;;;5.30;;
8066;SDS011;4076;48.076;9.118;2023-06-10T12:18:20;12.60;;;5.40;;
8066;SDS011;4076;48.076;9.118;2023-06-10T12:20:49;13.30;;;6.10;;
8066;SDS011;4076;48.076;9.118;2023-06-10T12:23:16;11.00;;;4.63;;
8066;SDS011;4076;48.076;9.118;2023-06-10T12:25:52;11.77;;;5.40;;
8066;SDS011;4076;48.076;9.118;2023-06-10T12:28:25;12.23;;;4.90;;
8066;SDS011;4076;48.076;9.118;2023-06-10T12:30:51;11.33;;;4.10;;
8066;SDS011;4076;48.076;9.118;2023-06-10T12:33:30;12.20;;;4.97;;
8066;SDS011;4076;48.076;9.118;2023-06-10T12:35:56;11.83;;;5.20;;
8066;SDS011;4076;48.076;9.118;2023-06-10T12:38:22;10.00;;;4.13;;
8066;SDS011;4076;48.076;9.118;2023-06-10T12:41:00;11.10;;;4.73;;
8066;SDS011;4076;48.076;9.118;2023-06-10T12:43:27;9.80;;;3.80;;
8066;SDS011;4076;48.076;9.118;2023-06-10T12:45:52;10.70;;;3.90;;
8066;SDS011;4076;48.076;9.118;2023-06-10T12:48:19;18.10;;;11.77;;
8066;SDS011;4076;48.076;9.118;2023-06-10T12:50:52;9.90;;;4.17;;
8066;SDS011;4076;48.076;9.118;2023-06-10T12:53:19;10.40;;;4.37;;
8066;SDS011;4076;48.076;9.118;2023-06-10T12:55:46;14.73;;;5.77;;
8066;SDS011;4076;48.076;9.118;2023-06-10T12:58:12;9.73;;;3.90;;
8066;SDS011;4076;48.076;9.118;2023-06-10T13:00:38;10.13;;;3.70;;
8066;SDS011;4076;48.076;9.118;2023-06-10T13:03:05;9.70;;;3.77;;
8066;SDS011;4076;48.076;9.118;2023-06-10T13:05:32;11.30;;;4.13;;
8066;SDS011;4076;48.076;9.118;2023-06-10T13:07:58;16.60;;;5.60;;
8066;SDS011;4076;48.076;9.118;2023-06-10T13:10:24;13.70;;;5.20;;
8066;SDS011;4076;48.076;9.118;2023-06-10T13:12:50;10.43;;;4.13;;
8066;SDS011;4076;48.076;9.118;2023-06-10T13:15:16;10.73;;;4.27;;
8066;SDS011;4076;48.076;9.118;2023-06-10T13:17:45;11.90;;;5.17;;
8066;SDS011;4076;48.076;9.118;2023-06-10T13:20:14;10.83;;;4.23;;
8066;SDS011;4076;48.076;9.118;2023-06-10T13:22:41;9.60;;;4.03;;
8066;SDS011;4076;48.076;9.118;2023-06-10T13:25:07;10.00;;;4.10;;
8066;SDS011;4076;48.076;9.118;2023-06-10T13:27:33;10.70;;;4.70;;
8066;SDS011;4076;48.076;9.118;2023-06-10T13:29:59;10.70;;;5.10;;
8066;SDS011;4076;48.076;9.118;2023-06-10T13:32:25;10.80;;;4.30;;
8066;SDS011;4076;48.076;9.118;2023-06-10T13:34:50;10.07;;;4.30;;
8066;SDS011;4076;48.076;9.118;2023-06-10T13:37:16;10.80;;;5.00;;
8066;SDS011;4076;48.076;9.118;2023-06-10T13:39:43;10.27;;;4.63;;
8066;SDS011;4076;48.076;9.118;2023-06-10T13:42:08;10.73;;;4.70;;
8066;SDS011;4076;48.076;9.118;2023-06-10T13:44:34;11.70;;;5.47;;
8066;SDS011;4076;48.076;9.118;2023-06-10T13:47:01;10.60;;;4.63;;
8066;SDS011;4076;48.076;9.118;2023-06-10T13:49:28;12.67;;;5.83;;
8066;SDS011;4076;48.076;9.118;2023-06-10T13:51:54;11.40;;;4.77;;
8066;SDS011;4076;48.076;9.118;2023-06-10T13:54:19;10.97;;;4.10;;
8066;SDS011;4076;48.076;9.118;2023-06-10T13:56:46;10.10;;;4.10;;
8066;SDS011;4076;48.076;9.118;2023-06-10T13:59:11;10.40;;;4.43;;
8066;SDS011;4076;48.076;9.118;2023-06-10T14:01:37;10.43;;;4.30;;
8066;SDS011;4076;48.076;9.118;2023-06-10T14:04:03;10.20;;;4.37;;
8066;SDS011;4076;48.076;9.118;2023-06-10T14:06:29;11.60;;;5.43;;
8066;SDS011;4076;48.076;9.118;2023-06-10T14:08:55;11.47;;;5.10;;
8066;SDS011;4076;48.076;9.118;2023-06-10T14:11:21;9.93;;;4.40;;
8066;SDS011;4076;48.076;9.118;2023-06-10T14:13:46;10.30;;;4.70;;
8066;SDS011;4076;48.076;9.118;2023-06-10T14:16:15;11.10;;;4.20;;
8066;SDS011;4076;48.076;9.118;2023-06-10T14:18:47;10.70;;;4.43;;
8066;SDS011;4076;48.076;9.118;2023-06-10T14:21:12;11.87;;;5.63;;
8066;SDS011;4076;48.076;9.118;2023-06-10T14:23:38;10.90;;;4.60;;
8066;SDS011;4076;48.076;9.118;2023-06-10T14:26:03;10.33;;;4.90;;
8066;SDS011;4076;48.076;9.118;2023-06-10T14:28:31;10.40;;;4.60;;
8066;SDS011;4076;48.076;9.118;2023-06-10T14:30:56;11.27;;;4.93;;
8066;SDS011;4076;48.076;9.118;2023-06-10T14:33:22;11.27;;;4.70;;
8066;SDS011;4076;48.076;9.118;2023-06-10T14:35:48;11.20;;;4.90;;
8066;SDS011;4076;48.076;9.118;2023-06-10T14:38:13;12.30;;;4.90;;
8066;SDS011;4076;48.076;9.118;2023-06-10T14:40:39;11.70;;;4.93;;
8066;SDS011;4076;48.076;9.118;2023-06-10T14:43:05;10.40;;;3.93;;
8066;SDS011;4076;48.076;9.118;2023-06-10T14:45:35;10.17;;;3.93;;
8066;SDS011;4076;48.076;9.118;2023-06-10T14:48:05;10.37;;;4.27;;
8066;SDS011;4076;48.076;9.118;2023-06-10T14:50:31;11.13;;;4.60;;
8066;SDS011;4076;48.076;9.118;2023-06-10T14:52:57;12.73;;;5.17;;
8066;SDS011;4076;48.076;9.118;2023-06-10T14:55:23;11.20;;;4.20;;
8066;SDS011;4076;48.076;9.118;2023-06-10T14:57:49;10.63;;;4.33;;
8066;SDS011;4076;48.076;9.118;2023-06-10T15:00:15;11.00;;;4.90;;
8066;SDS011;4076;48.076;9.118;2023-06-10T15:02:45;10.33;;;4.37;;
8066;SDS011;4076;48.076;9.118;2023-06-10T15:05:12;10.30;;;4.47;;
8066;SDS011;4076;48.076;9.118;2023-06-10T15:07:42;10.17;;;4.20;;
8066;SDS011;4076;48.076;9.118;2023-06-10T15:10:08;11.10;;;4.80;;
8066;SDS011;4076;48.076;9.118;2023-06-10T15:12:34;12.30;;;4.63;;